createdAt,value
2018-12-06T00:00:42.120Z,8.57
2018-12-06T00:01:42.101Z,8.63
2018-12-06T00:02:42.073Z,8.52
2018-12-06T00:03:42.055Z,8.57
2018-12-06T00:04:42.031Z,8.49
2018-12-06T00:05:41.999Z,8.49
2018-12-06T00:06:41.982Z,8.52
2018-12-06T00:07:41.954Z,8.49
2018-12-06T00:08:41.938Z,8.49
2018-12-06T00:09:41.905Z,8.44
2018-12-06T00:10:41.883Z,8.49
2018-12-06T00:11:41.859Z,8.46
2018-12-06T00:12:41.841Z,8.42
2018-12-06T00:13:41.811Z,8.49
2018-12-06T00:14:41.795Z,8.49
2018-12-06T00:15:41.764Z,8.45
2018-12-06T00:16:41.739Z,8.52
2018-12-06T00:17:41.718Z,8.56
2018-12-06T00:18:41.691Z,8.49
2018-12-06T00:19:41.679Z,8.49
2018-12-06T00:20:41.645Z,8.60
2018-12-06T00:21:41.621Z,8.54
2018-12-06T00:22:41.599Z,8.60
2018-12-06T00:23:41.582Z,8.57
2018-12-06T00:24:41.552Z,8.46
2018-12-06T00:25:41.530Z,8.44
2018-12-06T00:26:41.513Z,8.44
2018-12-06T00:27:41.482Z,8.45
2018-12-06T00:28:41.459Z,8.49
2018-12-06T00:29:41.447Z,8.49
2018-12-06T00:30:41.410Z,8.46
2018-12-06T00:31:41.465Z,8.56
2018-12-06T00:32:41.365Z,8.52
2018-12-06T00:33:41.341Z,8.52
2018-12-06T00:34:41.316Z,8.49
2018-12-06T00:35:41.299Z,8.59
2018-12-06T00:36:41.269Z,8.41
2018-12-06T00:37:41.255Z,8.44
2018-12-06T00:38:41.224Z,8.57
2018-12-06T00:39:41.200Z,8.44
2018-12-06T00:40:41.197Z,8.46
2018-12-06T00:41:41.158Z,8.42
2018-12-06T00:42:41.128Z,8.50
2018-12-06T00:43:41.105Z,8.49
2018-12-06T00:44:41.081Z,8.46
2018-12-06T00:45:41.067Z,8.53
2018-12-06T00:46:41.036Z,8.50
2018-12-06T00:47:41.013Z,8.52
2018-12-06T00:48:40.989Z,8.56
2018-12-06T00:49:40.964Z,8.46
2018-12-06T00:50:40.942Z,8.46
2018-12-06T00:51:40.921Z,8.49
2018-12-06T00:52:40.894Z,8.49
2018-12-06T00:53:40.869Z,8.54
2018-12-06T00:54:40.851Z,8.54
2018-12-06T00:55:40.824Z,8.49
2018-12-06T00:56:40.800Z,8.49
2018-12-06T00:57:40.776Z,8.49
2018-12-06T00:58:40.754Z,8.46
2018-12-06T00:59:40.737Z,8.50
2018-12-06T01:00:40.707Z,8.42
2018-12-06T01:01:40.682Z,8.49
2018-12-06T01:02:40.668Z,8.44
2018-12-06T01:03:40.635Z,8.49
2018-12-06T01:04:40.615Z,8.45
2018-12-06T01:05:40.588Z,8.50
2018-12-06T01:06:40.581Z,8.45
2018-12-06T01:07:40.554Z,8.39
2018-12-06T01:08:40.519Z,8.46
2018-12-06T01:09:40.507Z,8.45
2018-12-06T01:10:40.471Z,8.42
2018-12-06T01:11:40.453Z,8.49
2018-12-06T01:12:40.428Z,8.53
2018-12-06T01:13:40.399Z,8.52
2018-12-06T01:14:40.378Z,8.60
2018-12-06T01:15:40.353Z,8.60
2018-12-06T01:16:40.338Z,8.57
2018-12-06T01:17:40.306Z,8.60
2018-12-06T01:18:40.284Z,8.63
2018-12-06T01:19:40.258Z,8.64
2018-12-06T01:20:40.235Z,8.60
2018-12-06T01:21:40.214Z,8.69
2018-12-06T01:22:40.186Z,8.71
2018-12-06T01:23:40.164Z,8.71
2018-12-06T01:24:40.139Z,8.66
2018-12-06T01:25:40.118Z,8.63
2018-12-06T01:26:40.092Z,8.61
2018-12-06T01:27:40.074Z,8.61
2018-12-06T01:28:40.047Z,8.72
2018-12-06T01:29:40.102Z,8.68
2018-12-06T01:30:40.017Z,8.60
2018-12-06T01:31:39.975Z,8.63
2018-12-06T01:32:39.951Z,8.71
2018-12-06T01:33:39.927Z,8.77
2018-12-06T01:34:39.904Z,8.75
2018-12-06T01:35:39.887Z,8.75
2018-12-06T01:36:39.873Z,8.81
2018-12-06T01:37:39.834Z,8.69
2018-12-06T01:38:39.813Z,8.78
2018-12-06T01:39:39.786Z,8.86
2018-12-06T01:40:39.761Z,8.86
2018-12-06T01:41:39.737Z,8.81
2018-12-06T01:42:39.720Z,8.87
2018-12-06T01:43:39.699Z,8.79
2018-12-06T01:44:39.672Z,8.87
2018-12-06T01:45:39.645Z,8.87
2018-12-06T01:46:39.620Z,8.97
2018-12-06T01:47:39.597Z,8.97
2018-12-06T01:48:39.573Z,8.96
2018-12-06T01:49:39.563Z,8.97
2018-12-06T01:50:39.526Z,8.95
2018-12-06T01:51:39.503Z,8.95
2018-12-06T01:52:39.480Z,8.99
2018-12-06T01:53:39.455Z,8.96
2018-12-06T01:54:39.438Z,8.97
2018-12-06T01:55:39.416Z,9.03
2018-12-06T01:56:39.385Z,8.90
2018-12-06T01:57:39.371Z,8.96
2018-12-06T01:58:39.338Z,8.92
2018-12-06T01:59:39.314Z,9.09
2018-12-06T02:00:39.292Z,9.03
2018-12-06T02:01:39.267Z,9.00
2018-12-06T02:02:39.244Z,9.05
2018-12-06T02:03:39.219Z,9.03
2018-12-06T02:04:39.196Z,9.09
2018-12-06T02:05:39.188Z,9.09
2018-12-06T02:06:39.148Z,9.00
2018-12-06T02:07:39.126Z,9.02
2018-12-06T02:08:39.104Z,9.02
2018-12-06T02:09:39.097Z,9.08
2018-12-06T02:10:39.053Z,9.08
2018-12-06T02:11:39.041Z,9.03
2018-12-06T02:12:39.160Z,9.09
2018-12-06T02:13:38.993Z,8.99
2018-12-06T02:14:38.961Z,9.11
2018-12-06T02:15:38.943Z,8.99
2018-12-06T02:16:38.915Z,9.18
2018-12-06T02:17:38.901Z,9.16
2018-12-06T02:18:38.868Z,9.16
2018-12-06T02:19:38.844Z,9.16
2018-12-06T02:20:38.823Z,9.15
2018-12-06T02:21:38.799Z,9.13
2018-12-06T02:22:38.778Z,9.13
2018-12-06T02:23:38.758Z,9.19
2018-12-06T02:24:38.729Z,9.22
2018-12-06T02:25:38.705Z,9.11
2018-12-06T02:26:38.690Z,9.13
2018-12-06T02:27:38.660Z,9.18
2018-12-06T02:28:38.635Z,9.26
2018-12-06T02:29:38.629Z,9.22
2018-12-06T02:30:38.601Z,9.22
2018-12-06T02:31:38.570Z,9.19
2018-12-06T02:32:38.558Z,9.29
2018-12-06T02:33:38.521Z,9.24
2018-12-06T02:34:38.499Z,9.24
2018-12-06T02:35:38.474Z,9.18
2018-12-06T02:36:38.462Z,9.19
2018-12-06T02:37:38.430Z,9.22
2018-12-06T02:38:38.403Z,9.26
2018-12-06T02:39:38.381Z,9.19
2018-12-06T02:40:38.363Z,9.26
2018-12-06T02:41:38.334Z,9.27
2018-12-06T02:42:38.319Z,9.27
2018-12-06T02:43:38.294Z,9.26
2018-12-06T02:44:38.271Z,9.22
2018-12-06T02:45:38.248Z,9.30
2018-12-06T02:46:38.220Z,9.30
2018-12-06T02:47:38.196Z,9.27
2018-12-06T02:48:38.173Z,9.22
2018-12-06T02:49:38.150Z,9.22
2018-12-06T02:50:38.138Z,9.16
2018-12-06T02:51:38.102Z,9.29
2018-12-06T02:52:38.156Z,9.24
2018-12-06T02:53:38.059Z,9.26
2018-12-06T02:54:38.035Z,9.15
2018-12-06T02:55:38.011Z,9.30
2018-12-06T02:56:37.990Z,9.30
2018-12-06T02:57:37.966Z,9.29
2018-12-06T02:58:37.943Z,9.24
2018-12-06T02:59:37.919Z,9.30
2018-12-06T03:00:37.901Z,9.19
2018-12-06T03:01:37.871Z,9.31
2018-12-06T03:02:37.851Z,9.31
2018-12-06T03:03:37.826Z,9.36
2018-12-06T03:04:37.802Z,9.30
2018-12-06T03:05:37.778Z,9.30
2018-12-06T03:06:37.756Z,9.27
2018-12-06T03:07:37.741Z,9.29
2018-12-06T03:08:37.710Z,9.24
2018-12-06T03:09:37.694Z,9.33
2018-12-06T03:10:37.677Z,9.26
2018-12-06T03:11:37.640Z,9.36
2018-12-06T03:12:37.618Z,9.37
2018-12-06T03:13:37.594Z,9.36
2018-12-06T03:14:37.571Z,9.37
2018-12-06T03:15:37.558Z,9.29
2018-12-06T03:16:37.525Z,9.36
2018-12-06T03:17:37.500Z,9.31
2018-12-06T03:18:37.479Z,9.37
2018-12-06T03:19:37.458Z,9.37
2018-12-06T03:20:37.438Z,9.39
2018-12-06T03:21:37.410Z,9.44
2018-12-06T03:22:37.397Z,9.42
2018-12-06T03:23:37.366Z,9.40
2018-12-06T03:24:37.342Z,9.44
2018-12-06T03:25:37.322Z,9.45
2018-12-06T03:26:37.296Z,9.47
2018-12-06T03:27:37.275Z,9.40
2018-12-06T03:28:37.251Z,9.40
2018-12-06T03:29:37.228Z,9.49
2018-12-06T03:30:37.205Z,9.51
2018-12-06T03:31:37.182Z,9.48
2018-12-06T03:32:37.173Z,9.49
2018-12-06T03:33:37.135Z,9.49
2018-12-06T03:34:37.113Z,9.56
2018-12-06T03:35:37.091Z,9.58
2018-12-06T03:36:37.067Z,9.51
2018-12-06T03:37:37.045Z,9.59
2018-12-06T03:38:37.034Z,9.62
2018-12-06T03:39:36.998Z,9.63
2018-12-06T03:40:36.978Z,9.63
2018-12-06T03:41:36.954Z,9.64
2018-12-06T03:42:36.934Z,9.63
2018-12-06T03:43:36.906Z,9.62
2018-12-06T03:44:36.888Z,9.64
2018-12-06T03:45:36.862Z,9.64
2018-12-06T03:46:36.841Z,9.66
2018-12-06T03:47:36.817Z,9.63
2018-12-06T03:48:36.801Z,9.58
2018-12-06T03:49:36.775Z,9.62
2018-12-06T03:50:36.748Z,9.58
2018-12-06T03:51:36.733Z,9.62
2018-12-06T03:52:36.702Z,9.63
2018-12-06T03:53:36.678Z,9.62
2018-12-06T03:54:36.654Z,9.59
2018-12-06T03:55:36.633Z,9.63
2018-12-06T03:56:36.610Z,9.63
2018-12-06T03:57:36.593Z,9.62
2018-12-06T03:58:36.564Z,9.59
2018-12-06T03:59:36.548Z,9.62
2018-12-06T04:00:36.522Z,9.63
2018-12-06T04:01:36.494Z,9.58
2018-12-06T04:02:36.470Z,9.59
2018-12-06T04:03:36.449Z,9.62
2018-12-06T04:04:36.429Z,9.54
2018-12-06T04:05:36.415Z,9.62
2018-12-06T04:06:36.379Z,9.49
2018-12-06T04:07:36.360Z,9.52
2018-12-06T04:08:36.336Z,9.47
2018-12-06T04:09:36.311Z,9.47
2018-12-06T04:10:36.288Z,9.47
2018-12-06T04:11:36.267Z,9.49
2018-12-06T04:12:36.247Z,9.44
2018-12-06T04:13:36.221Z,9.47
2018-12-06T04:14:36.197Z,9.39
2018-12-06T04:15:36.174Z,9.39
2018-12-06T04:16:36.152Z,9.44
2018-12-06T04:17:36.131Z,9.45
2018-12-06T04:18:36.106Z,9.40
2018-12-06T04:19:36.084Z,9.39
2018-12-06T04:20:36.067Z,9.40
2018-12-06T04:21:36.037Z,9.37
2018-12-06T04:22:36.014Z,9.44
2018-12-06T04:23:35.991Z,9.44
2018-12-06T04:24:35.975Z,9.42
2018-12-06T04:25:35.946Z,9.45
2018-12-06T04:26:35.930Z,9.40
2018-12-06T04:27:35.901Z,9.44
2018-12-06T04:28:35.880Z,9.39
2018-12-06T04:29:35.855Z,9.44
2018-12-06T04:30:35.830Z,9.42
2018-12-06T04:31:35.812Z,9.42
2018-12-06T04:32:35.791Z,9.45
2018-12-06T04:33:35.765Z,9.48
2018-12-06T04:34:35.741Z,9.39
2018-12-06T04:35:35.717Z,9.44
2018-12-06T04:36:35.694Z,9.44
2018-12-06T04:37:35.672Z,9.49
2018-12-06T04:38:35.648Z,9.47
2018-12-06T04:39:35.630Z,9.51
2018-12-06T04:40:35.616Z,9.48
2018-12-06T04:41:35.580Z,9.51
2018-12-06T04:42:35.556Z,9.49
2018-12-06T04:43:35.535Z,9.47
2018-12-06T04:44:35.513Z,9.51
2018-12-06T04:45:35.494Z,9.56
2018-12-06T04:46:35.466Z,9.58
2018-12-06T04:47:35.444Z,9.58
2018-12-06T04:48:35.418Z,9.63
2018-12-06T04:49:35.397Z,9.64
2018-12-06T04:50:35.388Z,9.62
2018-12-06T04:51:35.352Z,9.66
2018-12-06T04:52:35.346Z,9.63
2018-12-06T04:53:35.308Z,9.63
2018-12-06T04:54:35.283Z,9.62
2018-12-06T04:55:35.601Z,9.59
2018-12-06T04:56:35.237Z,9.62
2018-12-06T04:57:35.222Z,9.58
2018-12-06T04:58:35.192Z,9.51
2018-12-06T04:59:35.181Z,9.58
2018-12-06T05:00:35.161Z,9.59
2018-12-06T05:01:35.122Z,9.63
2018-12-06T05:02:35.194Z,9.62
2018-12-06T05:03:35.090Z,9.67
2018-12-06T05:04:35.054Z,9.70
2018-12-06T05:05:35.031Z,9.66
2018-12-06T05:06:35.010Z,9.69
2018-12-06T05:07:34.986Z,9.66
2018-12-06T05:08:34.970Z,9.69
2018-12-06T05:09:34.939Z,9.73
2018-12-06T05:10:34.917Z,9.80
2018-12-06T05:11:34.896Z,9.74
2018-12-06T05:12:34.871Z,9.76
2018-12-06T05:13:34.848Z,9.69
2018-12-06T05:14:34.826Z,9.80
2018-12-06T05:15:34.804Z,9.77
2018-12-06T05:16:34.781Z,9.70
2018-12-06T05:17:34.757Z,9.82
2018-12-06T05:18:34.735Z,9.74
2018-12-06T05:19:34.711Z,9.74
2018-12-06T05:20:34.694Z,9.76
2018-12-06T05:21:34.665Z,9.74
2018-12-06T05:22:34.644Z,9.73
2018-12-06T05:23:34.623Z,9.72
2018-12-06T05:24:34.599Z,9.74
2018-12-06T05:25:34.575Z,9.69
2018-12-06T05:26:34.553Z,9.73
2018-12-06T05:27:34.531Z,9.76
2018-12-06T05:28:34.509Z,9.69
2018-12-06T05:29:34.553Z,9.62
2018-12-06T05:30:34.463Z,9.72
2018-12-06T05:31:34.442Z,9.63
2018-12-06T05:32:34.417Z,9.59
2018-12-06T05:33:34.394Z,9.63
2018-12-06T05:34:34.383Z,9.67
2018-12-06T05:35:34.363Z,9.56
2018-12-06T05:36:34.429Z,9.62
2018-12-06T05:37:34.303Z,9.62
2018-12-06T05:38:34.280Z,9.54
2018-12-06T05:39:34.257Z,9.59
2018-12-06T05:40:34.235Z,9.63
2018-12-06T05:41:34.211Z,9.64
2018-12-06T05:42:34.192Z,9.64
2018-12-06T05:43:34.168Z,9.63
2018-12-06T05:44:34.143Z,9.63
2018-12-06T05:45:34.127Z,9.62
2018-12-06T05:46:34.097Z,9.62
2018-12-06T05:47:34.077Z,9.59
2018-12-06T05:48:34.055Z,9.58
2018-12-06T05:49:34.032Z,9.66
2018-12-06T05:50:34.013Z,9.59
2018-12-06T05:51:33.984Z,9.72
2018-12-06T05:52:33.963Z,9.72
2018-12-06T05:53:33.939Z,9.73
2018-12-06T05:54:33.916Z,9.59
2018-12-06T05:55:33.894Z,9.67
2018-12-06T05:56:33.872Z,9.64
2018-12-06T05:57:33.849Z,9.64
2018-12-06T05:58:33.827Z,9.69
2018-12-06T05:59:33.813Z,9.67
2018-12-06T06:00:33.786Z,9.64
2018-12-06T06:01:33.765Z,9.69
2018-12-06T06:02:33.734Z,9.62
2018-12-06T06:03:33.722Z,9.72
2018-12-06T06:04:33.692Z,9.59
2018-12-06T06:05:33.668Z,9.63
2018-12-06T06:06:33.643Z,9.66
2018-12-06T06:07:33.684Z,9.69
2018-12-06T06:08:33.599Z,9.56
2018-12-06T06:09:33.583Z,9.64
2018-12-06T06:10:33.563Z,9.58
2018-12-06T06:11:33.548Z,9.59
2018-12-06T06:12:33.508Z,9.58
2018-12-06T06:13:33.486Z,9.64
2018-12-06T06:14:33.467Z,9.63
2018-12-06T06:15:33.441Z,9.52
2018-12-06T06:16:33.422Z,9.62
2018-12-06T06:17:33.396Z,9.54
2018-12-06T06:18:33.373Z,9.66
2018-12-06T06:19:33.355Z,9.59
2018-12-06T06:20:33.330Z,9.59
2018-12-06T06:21:33.306Z,9.59
2018-12-06T06:22:33.283Z,9.63
2018-12-06T06:23:33.264Z,9.58
2018-12-06T06:24:33.248Z,9.59
2018-12-06T06:25:33.218Z,9.59
2018-12-06T06:26:33.193Z,9.52
2018-12-06T06:27:33.171Z,9.54
2018-12-06T06:28:33.155Z,9.55
2018-12-06T06:29:33.123Z,9.58
2018-12-06T06:30:33.102Z,9.62
2018-12-06T06:31:33.088Z,9.63
2018-12-06T06:32:33.058Z,9.58
2018-12-06T06:33:33.032Z,9.59
2018-12-06T06:34:33.013Z,9.54
2018-12-06T06:35:32.986Z,9.63
2018-12-06T06:36:32.973Z,9.67
2018-12-06T06:37:32.943Z,9.66
2018-12-06T06:38:32.927Z,9.66
2018-12-06T06:39:32.896Z,9.64
2018-12-06T06:40:32.875Z,9.62
2018-12-06T06:41:32.854Z,9.74
2018-12-06T06:42:32.831Z,9.69
2018-12-06T06:43:32.810Z,9.73
2018-12-06T06:44:32.788Z,9.74
2018-12-06T06:45:32.762Z,9.76
2018-12-06T06:46:32.745Z,9.73
2018-12-06T06:47:32.721Z,9.72
2018-12-06T06:48:32.698Z,9.76
2018-12-06T06:49:32.674Z,9.74
2018-12-06T06:50:32.655Z,9.72
2018-12-06T06:51:32.639Z,9.77
2018-12-06T06:52:32.599Z,9.77
2018-12-06T06:53:32.577Z,9.74
2018-12-06T06:54:32.553Z,9.74
2018-12-06T06:55:32.533Z,9.81
2018-12-06T06:56:32.518Z,9.82
2018-12-06T06:57:32.493Z,9.82
2018-12-06T06:58:32.465Z,9.84
2018-12-06T06:59:32.450Z,9.80
2018-12-06T07:00:32.420Z,9.82
2018-12-06T07:01:32.397Z,9.84
2018-12-06T07:02:32.374Z,9.82
2018-12-06T07:03:32.356Z,9.88
2018-12-06T07:04:32.329Z,9.80
2018-12-06T07:05:32.305Z,9.82
2018-12-06T07:06:32.283Z,9.95
2018-12-06T07:07:32.261Z,9.92
2018-12-06T07:08:32.238Z,9.90
2018-12-06T07:09:32.222Z,9.94
2018-12-06T07:10:32.195Z,9.91
2018-12-06T07:11:32.170Z,9.90
2018-12-06T07:12:32.148Z,9.90
2018-12-06T07:13:32.125Z,9.95
2018-12-06T07:14:32.112Z,9.91
2018-12-06T07:15:32.079Z,9.90
2018-12-06T07:16:32.066Z,9.97
2018-12-06T07:17:32.032Z,10.09
2018-12-06T07:18:32.010Z,10.00
2018-12-06T07:19:31.989Z,9.95
2018-12-06T07:20:31.966Z,10.03
2018-12-06T07:21:31.953Z,10.02
2018-12-06T07:22:31.923Z,10.02
2018-12-06T07:23:31.898Z,9.99
2018-12-06T07:24:31.886Z,10.05
2018-12-06T07:25:31.853Z,9.95
2018-12-06T07:26:31.870Z,10.00
2018-12-06T07:27:31.817Z,10.03
2018-12-06T07:28:31.787Z,10.03
2018-12-06T07:29:31.764Z,10.10
2018-12-06T07:30:31.739Z,10.09
2018-12-06T07:31:31.719Z,10.02
2018-12-06T07:32:31.708Z,10.09
2018-12-06T07:33:31.686Z,10.12
2018-12-06T07:34:31.654Z,10.06
2018-12-06T07:35:32.276Z,10.06
2018-12-06T07:36:31.606Z,10.15
2018-12-06T07:37:31.585Z,10.09
2018-12-06T07:38:31.570Z,10.17
2018-12-06T07:39:31.540Z,10.09
2018-12-06T07:40:31.524Z,10.15
2018-12-06T07:41:31.501Z,10.05
2018-12-06T07:42:31.490Z,10.03
2018-12-06T07:43:31.450Z,10.13
2018-12-06T07:44:31.429Z,10.15
2018-12-06T07:45:31.419Z,10.18
2018-12-06T07:46:31.393Z,10.27
2018-12-06T07:47:31.367Z,10.30
2018-12-06T07:48:31.338Z,10.23
2018-12-06T07:49:31.314Z,10.18
2018-12-06T07:50:31.291Z,10.25
2018-12-06T07:51:31.274Z,10.21
2018-12-06T07:52:31.248Z,10.23
2018-12-06T07:53:31.234Z,10.24
2018-12-06T07:54:31.215Z,10.21
2018-12-06T07:55:31.181Z,10.21
2018-12-06T07:56:31.158Z,10.28
2018-12-06T07:57:31.155Z,10.31
2018-12-06T07:58:31.113Z,10.45
2018-12-06T07:59:31.093Z,10.34
2018-12-06T08:00:31.070Z,10.33
2018-12-06T08:01:31.046Z,10.30
2018-12-06T08:02:31.031Z,10.24
2018-12-06T08:03:31.011Z,10.25
2018-12-06T08:04:31.001Z,10.27
2018-12-06T08:05:30.960Z,10.25
2018-12-06T08:06:30.938Z,10.23
2018-12-06T08:07:30.927Z,10.30
2018-12-06T08:08:30.895Z,10.23
2018-12-06T08:09:30.872Z,10.24
2018-12-06T08:10:30.861Z,10.27
2018-12-06T08:11:30.840Z,10.24
2018-12-06T08:12:30.817Z,10.21
2018-12-06T08:13:30.811Z,10.21
2018-12-06T08:14:30.762Z,10.31
2018-12-06T08:15:30.740Z,10.33
2018-12-06T08:16:30.736Z,10.27
2018-12-06T08:17:30.695Z,10.24
2018-12-06T08:18:30.678Z,10.24
2018-12-06T08:19:30.651Z,10.34
2018-12-06T08:20:30.630Z,10.31
2018-12-06T08:21:30.606Z,10.27
2018-12-06T08:22:30.587Z,10.30
2018-12-06T08:23:30.560Z,10.33
2018-12-06T08:24:30.556Z,10.28
2018-12-06T08:25:30.541Z,10.38
2018-12-06T08:26:30.503Z,10.41
2018-12-06T08:27:30.480Z,10.33
2018-12-06T08:28:30.450Z,10.31
2018-12-06T08:29:30.428Z,10.30
2018-12-06T08:30:30.406Z,10.39
2018-12-06T08:31:30.385Z,10.38
2018-12-06T08:32:30.364Z,10.38
2018-12-06T08:33:30.345Z,10.49
2018-12-06T08:34:30.318Z,10.46
2018-12-06T08:35:30.297Z,10.46
2018-12-06T08:36:30.282Z,10.39
2018-12-06T08:37:30.251Z,10.46
2018-12-06T08:38:30.241Z,10.46
2018-12-06T08:39:30.225Z,10.43
2018-12-06T08:40:30.186Z,10.41
2018-12-06T08:41:30.163Z,10.46
2018-12-06T08:42:30.146Z,10.43
2018-12-06T08:43:31.767Z,10.41
2018-12-06T08:44:30.150Z,10.53
2018-12-06T08:45:30.080Z,10.53
2018-12-06T08:46:30.058Z,10.61
2018-12-06T08:47:30.048Z,10.61
2018-12-06T08:48:30.009Z,10.55
2018-12-06T08:49:29.987Z,10.55
2018-12-06T08:50:29.964Z,10.62
2018-12-06T08:51:29.944Z,10.59
2018-12-06T08:52:29.923Z,10.59
2018-12-06T08:53:29.908Z,10.59
2018-12-06T08:54:29.882Z,10.58
2018-12-06T08:55:29.856Z,10.69
2018-12-06T08:56:29.843Z,10.71
2018-12-06T08:57:29.819Z,10.59
2018-12-06T08:58:29.791Z,10.75
2018-12-06T08:59:29.768Z,10.76
2018-12-06T09:00:29.749Z,10.64
2018-12-06T09:01:29.731Z,10.69
2018-12-06T09:02:29.703Z,10.69
2018-12-06T09:03:29.688Z,10.69
2018-12-06T09:04:29.660Z,10.79
2018-12-06T09:05:29.648Z,10.72
2018-12-06T09:06:29.615Z,10.72
2018-12-06T09:07:29.604Z,10.75
2018-12-06T09:08:29.581Z,10.71
2018-12-06T09:09:29.699Z,10.72
2018-12-06T09:10:29.528Z,10.77
2018-12-06T09:11:29.506Z,10.75
2018-12-06T09:12:29.486Z,10.71
2018-12-06T09:13:29.471Z,10.68
2018-12-06T09:14:29.442Z,10.72
2018-12-06T09:15:29.426Z,10.75
2018-12-06T09:16:29.398Z,10.64
2018-12-06T09:17:29.374Z,10.71
2018-12-06T09:18:29.367Z,10.75
2018-12-06T09:19:29.338Z,10.75
2018-12-06T09:20:29.363Z,10.77
2018-12-06T09:21:29.301Z,10.76
2018-12-06T09:22:29.272Z,10.82
2018-12-06T09:23:29.253Z,10.82
2018-12-06T09:24:29.233Z,10.84
2018-12-06T09:25:29.212Z,10.77
2018-12-06T09:26:29.185Z,10.86
2018-12-06T09:27:29.163Z,10.83
2018-12-06T09:28:29.142Z,10.83
2018-12-06T09:29:29.127Z,10.89
2018-12-06T09:30:29.103Z,10.87
2018-12-06T09:31:29.070Z,10.86
2018-12-06T09:32:29.051Z,10.86
2018-12-06T09:33:29.033Z,10.90
2018-12-06T09:34:29.013Z,10.86
2018-12-06T09:35:28.990Z,10.87
2018-12-06T09:36:29.130Z,10.84
2018-12-06T09:37:28.947Z,10.90
2018-12-06T09:38:28.928Z,10.84
2018-12-06T09:39:28.907Z,10.87
2018-12-06T09:40:28.880Z,10.82
2018-12-06T09:41:28.883Z,10.94
2018-12-06T09:42:28.841Z,11.05
2018-12-06T09:43:28.815Z,11.01
2018-12-06T09:44:28.808Z,10.98
2018-12-06T09:45:28.772Z,11.04
2018-12-06T09:46:28.748Z,11.01
2018-12-06T09:47:28.727Z,11.01
2018-12-06T09:48:28.709Z,11.00
2018-12-06T09:49:28.682Z,11.08
2018-12-06T09:50:28.676Z,11.08
2018-12-06T09:51:28.650Z,11.05
2018-12-06T09:52:28.636Z,11.07
2018-12-06T09:53:28.604Z,11.05
2018-12-06T09:54:28.577Z,11.12
2018-12-06T09:55:28.564Z,11.22
2018-12-06T09:56:28.540Z,11.26
2018-12-06T09:57:28.510Z,11.20
2018-12-06T09:58:28.501Z,11.18
2018-12-06T09:59:28.476Z,11.15
2018-12-06T10:00:28.454Z,11.13
2018-12-06T10:01:28.428Z,11.25
2018-12-06T10:02:28.417Z,11.26
2018-12-06T10:03:28.392Z,11.23
2018-12-06T10:04:28.370Z,11.23
2018-12-06T10:05:28.341Z,11.25
2018-12-06T10:06:28.331Z,11.33
2018-12-06T10:07:28.314Z,11.25
2018-12-06T10:08:28.279Z,11.23
2018-12-06T10:09:28.254Z,11.23
2018-12-06T10:10:28.251Z,11.23
2018-12-06T10:11:28.233Z,11.30
2018-12-06T10:12:28.192Z,11.33
2018-12-06T10:13:28.177Z,11.27
2018-12-06T10:14:28.156Z,11.34
2018-12-06T10:15:28.135Z,11.31
2018-12-06T10:16:28.121Z,11.35
2018-12-06T10:17:28.094Z,11.37
2018-12-06T10:18:28.091Z,11.44
2018-12-06T10:19:28.044Z,11.30
2018-12-06T10:20:28.029Z,11.33
2018-12-06T10:21:28.003Z,11.40
2018-12-06T10:22:27.981Z,11.38
2018-12-06T10:23:27.957Z,11.34
2018-12-06T10:24:27.945Z,11.38
2018-12-06T10:25:27.920Z,11.43
2018-12-06T10:26:27.901Z,11.40
2018-12-06T10:27:27.874Z,11.41
2018-12-06T10:28:27.850Z,11.37
2018-12-06T10:29:27.846Z,11.43
2018-12-06T10:30:27.806Z,11.40
2018-12-06T10:31:27.797Z,11.38
2018-12-06T10:32:27.772Z,11.40
2018-12-06T10:33:27.760Z,11.45
2018-12-06T10:34:27.721Z,11.44
2018-12-06T10:35:27.701Z,11.41
2018-12-06T10:36:27.682Z,11.40
2018-12-06T10:37:27.666Z,11.52
2018-12-06T10:38:27.649Z,11.33
2018-12-06T10:39:27.617Z,11.31
2018-12-06T10:40:27.595Z,11.48
2018-12-06T10:41:27.584Z,11.45
2018-12-06T10:42:27.561Z,11.52
2018-12-06T10:43:27.539Z,11.45
2018-12-06T10:44:27.511Z,11.52
2018-12-06T10:45:27.492Z,11.52
2018-12-06T10:46:27.471Z,11.59
2018-12-06T10:47:27.454Z,11.59
2018-12-06T10:48:27.431Z,11.59
2018-12-06T10:49:27.413Z,11.58
2018-12-06T10:50:27.383Z,11.59
2018-12-06T10:51:27.422Z,11.55
2018-12-06T10:52:27.343Z,11.60
2018-12-06T10:53:27.334Z,11.56
2018-12-06T10:54:27.298Z,11.60
2018-12-06T10:55:27.290Z,11.48
2018-12-06T10:56:27.257Z,11.62
2018-12-06T10:57:27.243Z,11.59
2018-12-06T10:58:27.220Z,11.63
2018-12-06T10:59:27.193Z,11.65
2018-12-06T11:00:27.177Z,11.60
2018-12-06T11:01:27.150Z,11.71
2018-12-06T11:02:27.144Z,11.62
2018-12-06T11:03:27.134Z,11.59
2018-12-06T11:04:27.095Z,11.63
2018-12-06T11:05:27.065Z,11.60
2018-12-06T11:06:27.046Z,11.70
2018-12-06T11:07:27.024Z,11.62
2018-12-06T11:08:27.004Z,11.65
2018-12-06T11:09:26.981Z,11.71
2018-12-06T11:10:27.011Z,11.67
2018-12-06T11:11:26.946Z,11.63
2018-12-06T11:12:26.919Z,11.62
2018-12-06T11:13:26.904Z,11.67
2018-12-06T11:14:26.877Z,11.70
2018-12-06T11:15:26.867Z,11.62
2018-12-06T11:16:26.836Z,11.62
2018-12-06T11:17:26.815Z,11.73
2018-12-06T11:18:26.792Z,11.76
2018-12-06T11:19:26.771Z,11.74
2018-12-06T11:20:26.750Z,11.76
2018-12-06T11:21:26.742Z,11.76
2018-12-06T11:22:26.721Z,11.73
2018-12-06T11:23:26.687Z,11.73
2018-12-06T11:24:26.675Z,11.73
2018-12-06T11:25:26.645Z,11.74
2018-12-06T11:26:26.622Z,11.73
2018-12-06T11:27:26.603Z,11.67
2018-12-06T11:28:26.582Z,11.67
2018-12-06T11:29:26.572Z,11.68
2018-12-06T11:30:26.539Z,11.77
2018-12-06T11:31:26.518Z,11.74
2018-12-06T11:32:26.497Z,11.76
2018-12-06T11:33:26.485Z,11.83
2018-12-06T11:34:26.454Z,11.83
2018-12-06T11:35:26.433Z,11.80
2018-12-06T11:36:26.415Z,11.81
2018-12-06T11:37:26.392Z,11.83
2018-12-06T11:38:26.384Z,11.85
2018-12-06T11:39:26.355Z,11.93
2018-12-06T11:40:26.342Z,11.86
2018-12-06T11:41:26.307Z,11.89
2018-12-06T11:42:26.287Z,11.95
2018-12-06T11:43:26.278Z,11.91
2018-12-06T11:44:26.254Z,11.93
2018-12-06T11:45:26.232Z,11.97
2018-12-06T11:46:26.214Z,11.97
2018-12-06T11:47:26.191Z,11.99
2018-12-06T11:48:27.072Z,12.05
2018-12-06T11:49:26.141Z,12.05
2018-12-06T11:50:26.120Z,12.14
2018-12-06T11:51:26.126Z,12.14
2018-12-06T11:52:26.098Z,12.11
2018-12-06T11:53:26.075Z,12.12
2018-12-06T11:54:26.044Z,12.25
2018-12-06T11:55:26.058Z,12.15
2018-12-06T11:56:26.006Z,12.18
2018-12-06T11:57:25.978Z,12.15
2018-12-06T11:58:25.973Z,12.18
2018-12-06T11:59:25.936Z,12.11
2018-12-06T12:00:25.929Z,12.12
2018-12-06T12:01:25.889Z,12.20
2018-12-06T12:02:25.871Z,12.17
2018-12-06T12:03:25.864Z,12.28
2018-12-06T12:04:25.829Z,12.25
2018-12-06T12:05:25.808Z,12.25
2018-12-06T12:06:25.797Z,12.26
2018-12-06T12:07:25.768Z,12.37
2018-12-06T12:08:25.751Z,12.36
2018-12-06T12:09:25.739Z,12.28
2018-12-06T12:10:25.712Z,12.37
2018-12-06T12:11:25.686Z,12.40
2018-12-06T12:12:25.666Z,12.39
2018-12-06T12:13:25.650Z,12.47
2018-12-06T12:14:25.622Z,12.51
2018-12-06T12:15:25.608Z,12.55
2018-12-06T12:16:25.589Z,12.48
2018-12-06T12:17:25.560Z,12.50
2018-12-06T12:18:25.542Z,12.48
2018-12-06T12:19:25.520Z,12.37
2018-12-06T12:20:25.499Z,12.43
2018-12-06T12:21:25.478Z,12.44
2018-12-06T12:22:25.460Z,12.39
2018-12-06T12:23:25.444Z,12.40
2018-12-06T12:24:25.423Z,12.36
2018-12-06T12:25:25.402Z,12.43
2018-12-06T12:26:25.382Z,12.44
2018-12-06T12:27:25.361Z,12.45
2018-12-06T12:28:25.350Z,12.40
2018-12-06T12:29:25.332Z,12.44
2018-12-06T12:30:25.293Z,12.36
2018-12-06T12:31:25.282Z,12.48
2018-12-06T12:32:25.267Z,12.40
2018-12-06T12:33:25.231Z,12.39
2018-12-06T12:34:25.215Z,12.47
2018-12-06T12:35:25.200Z,12.45
2018-12-06T12:36:25.182Z,12.45
2018-12-06T12:37:25.168Z,12.50
2018-12-06T12:38:25.130Z,12.55
2018-12-06T12:39:25.119Z,12.54
2018-12-06T12:40:25.100Z,12.51
2018-12-06T12:41:25.067Z,12.54
2018-12-06T12:42:25.050Z,12.54
2018-12-06T12:43:25.028Z,12.57
2018-12-06T12:44:25.009Z,12.55
2018-12-06T12:45:24.987Z,12.48
2018-12-06T12:46:24.970Z,12.57
2018-12-06T12:47:24.949Z,12.54
2018-12-06T12:48:24.926Z,12.58
2018-12-06T12:49:24.906Z,12.48
2018-12-06T12:50:24.889Z,12.48
2018-12-06T12:51:24.867Z,12.47
2018-12-06T12:52:24.854Z,12.45
2018-12-06T12:53:24.834Z,12.47
2018-12-06T12:54:24.809Z,12.45
2018-12-06T12:55:24.784Z,12.44
2018-12-06T12:56:24.766Z,12.47
2018-12-06T12:57:24.743Z,12.53
2018-12-06T12:58:25.305Z,12.47
2018-12-06T12:59:24.707Z,12.51
2018-12-06T13:00:24.681Z,12.48
2018-12-06T13:01:24.668Z,12.48
2018-12-06T13:02:24.639Z,12.44
2018-12-06T13:03:24.627Z,12.43
2018-12-06T13:04:24.608Z,12.44
2018-12-06T13:05:24.579Z,12.50
2018-12-06T13:06:24.573Z,12.48